sensor_id;sensor_type;location;lat;lon;timestamp;pressure;altitude;pressure_sealevel;temperature;humidity
83941;BME280;73976;68.386;23.636;2024-03-08T00:03:37;99220.63;;;-1.23;69.37
83941;BME280;73976;68.386;23.636;2024-03-08T00:07:41;99234.53;;;-1.24;68.17
83941;BME280;73976;68.386;23.636;2024-03-08T00:11:46;99240.53;;;-1.23;69.49
83941;BME280;73976;68.386;23.636;2024-03-08T00:15:49;99239.72;;;-1.24;69.53
83941;BME280;73976;68.386;23.636;2024-03-08T00:19:51;99213.28;;;-1.30;70.89
83941;BME280;73976;68.386;23.636;2024-03-08T00:23:55;99222.63;;;-1.28;71.82
83941;BME280;73976;68.386;23.636;2024-03-08T00:27:57;99243.38;;;-1.28;70.95
83941;BME280;73976;68.386;23.636;2024-03-08T00:32:02;99239.19;;;-1.30;69.90
83941;BME280;73976;68.386;23.636;2024-03-08T00:36:05;99232.19;;;-1.28;68.77
83941;BME280;73976;68.386;23.636;2024-03-08T00:40:10;99224.50;;;-1.30;70.15
83941;BME280;73976;68.386;23.636;2024-03-08T00:44:13;99222.97;;;-1.34;70.85
83941;BME280;73976;68.386;23.636;2024-03-08T00:48:16;99238.34;;;-1.31;68.49
83941;BME280;73976;68.386;23.636;2024-03-08T00:52:19;99227.50;;;-1.37;68.29
83941;BME280;73976;68.386;23.636;2024-03-08T00:56:22;99216.38;;;-1.39;67.82
83941;BME280;73976;68.386;23.636;2024-03-08T01:00:24;99217.22;;;-1.39;70.19
83941;BME280;73976;68.386;23.636;2024-03-08T01:04:28;99231.84;;;-1.38;68.13
83941;BME280;73976;68.386;23.636;2024-03-08T01:08:31;99225.19;;;-1.42;68.14
83941;BME280;73976;68.386;23.636;2024-03-08T01:12:34;99233.25;;;-1.32;69.67
83941;BME280;73976;68.386;23.636;2024-03-08T01:16:37;99219.66;;;-1.36;73.12
83941;BME280;73976;68.386;23.636;2024-03-08T01:20:40;99222.34;;;-1.37;68.95
83941;BME280;73976;68.386;23.636;2024-03-08T01:24:43;99229.25;;;-1.38;70.84
83941;BME280;73976;68.386;23.636;2024-03-08T01:28:46;99226.00;;;-1.41;70.26
83941;BME280;73976;68.386;23.636;2024-03-08T01:32:49;99217.16;;;-1.37;70.00
83941;BME280;73976;68.386;23.636;2024-03-08T01:36:52;99212.22;;;-1.42;72.06
83941;BME280;73976;68.386;23.636;2024-03-08T01:40:54;99227.69;;;-1.40;73.04
83941;BME280;73976;68.386;23.636;2024-03-08T01:44:57;99229.50;;;-1.42;69.08
83941;BME280;73976;68.386;23.636;2024-03-08T01:49:01;99232.34;;;-1.47;67.50
83941;BME280;73976;68.386;23.636;2024-03-08T01:53:05;99228.75;;;-1.44;69.57
83941;BME280;73976;68.386;23.636;2024-03-08T01:57:08;99226.50;;;-1.50;71.24
83941;BME280;73976;68.386;23.636;2024-03-08T02:01:12;99230.78;;;-1.49;67.48
83941;BME280;73976;68.386;23.636;2024-03-08T02:05:18;99239.19;;;-1.46;68.81
83941;BME280;73976;68.386;23.636;2024-03-08T02:09:22;99239.34;;;-1.49;68.60
83941;BME280;73976;68.386;23.636;2024-03-08T02:13:27;99239.28;;;-1.47;68.05
83941;BME280;73976;68.386;23.636;2024-03-08T02:17:30;99236.03;;;-1.51;69.67
83941;BME280;73976;68.386;23.636;2024-03-08T02:21:33;99229.25;;;-1.53;67.68
83941;BME280;73976;68.386;23.636;2024-03-08T02:25:36;99227.66;;;-1.56;67.62
83941;BME280;73976;68.386;23.636;2024-03-08T02:29:40;99217.56;;;-1.60;67.87
83941;BME280;73976;68.386;23.636;2024-03-08T02:33:44;99212.22;;;-1.57;71.04
83941;BME280;73976;68.386;23.636;2024-03-08T02:37:50;99216.28;;;-1.53;69.30
83941;BME280;73976;68.386;23.636;2024-03-08T02:41:52;99228.44;;;-1.54;67.97
83941;BME280;73976;68.386;23.636;2024-03-08T02:45:55;99220.81;;;-1.57;67.64
83941;BME280;73976;68.386;23.636;2024-03-08T02:49:58;99199.69;;;-1.65;71.53
83941;BME280;73976;68.386;23.636;2024-03-08T02:54:00;99218.25;;;-1.57;70.28
83941;BME280;73976;68.386;23.636;2024-03-08T02:58:03;99216.72;;;-1.61;68.17
83941;BME280;73976;68.386;23.636;2024-03-08T03:02:07;99212.47;;;-1.62;68.53
83941;BME280;73976;68.386;23.636;2024-03-08T03:06:12;99214.03;;;-1.59;69.57
83941;BME280;73976;68.386;23.636;2024-03-08T03:10:19;99210.63;;;-1.60;73.10
83941;BME280;73976;68.386;23.636;2024-03-08T03:14:22;99225.16;;;-1.57;69.29
83941;BME280;73976;68.386;23.636;2024-03-08T03:18:25;99229.66;;;-1.61;68.36
83941;BME280;73976;68.386;23.636;2024-03-08T03:22:29;99224.81;;;-1.67;66.89
83941;BME280;73976;68.386;23.636;2024-03-08T03:30:35;99223.84;;;-1.64;69.72
83941;BME280;73976;68.386;23.636;2024-03-08T03:34:38;99230.75;;;-1.65;67.48
83941;BME280;73976;68.386;23.636;2024-03-08T03:38:41;99235.16;;;-1.67;70.13
83941;BME280;73976;68.386;23.636;2024-03-08T03:42:44;99224.09;;;-1.69;70.21
83941;BME280;73976;68.386;23.636;2024-03-08T03:46:48;99223.31;;;-1.71;69.92
83941;BME280;73976;68.386;23.636;2024-03-08T03:50:50;99225.81;;;-1.69;69.48
83941;BME280;73976;68.386;23.636;2024-03-08T03:54:53;99212.53;;;-1.79;68.97
83941;BME280;73976;68.386;23.636;2024-03-08T03:58:56;99223.31;;;-1.71;69.97
83941;BME280;73976;68.386;23.636;2024-03-08T04:11:06;99225.38;;;-1.77;68.43
83941;BME280;73976;68.386;23.636;2024-03-08T04:15:10;99231.50;;;-1.78;68.05
83941;BME280;73976;68.386;23.636;2024-03-08T04:19:18;99228.81;;;-1.77;67.18
83941;BME280;73976;68.386;23.636;2024-03-08T04:23:21;99229.50;;;-1.73;67.50
83941;BME280;73976;68.386;23.636;2024-03-08T04:27:24;99221.13;;;-1.78;70.45
83941;BME280;73976;68.386;23.636;2024-03-08T04:31:26;99228.97;;;-1.80;68.77
83941;BME280;73976;68.386;23.636;2024-03-08T04:35:29;99228.06;;;-1.79;68.23
83941;BME280;73976;68.386;23.636;2024-03-08T04:39:32;99222.78;;;-1.77;69.92
83941;BME280;73976;68.386;23.636;2024-03-08T04:43:35;99231.50;;;-1.78;68.20
83941;BME280;73976;68.386;23.636;2024-03-08T04:47:38;99222.31;;;-1.84;68.23
83941;BME280;73976;68.386;23.636;2024-03-08T04:55:47;99229.50;;;-1.73;67.25
83941;BME280;73976;68.386;23.636;2024-03-08T04:59:50;99208.59;;;-1.86;67.16
83941;BME280;73976;68.386;23.636;2024-03-08T05:03:52;99211.88;;;-1.82;67.69
83941;BME280;73976;68.386;23.636;2024-03-08T05:08:02;99213.38;;;-1.78;67.22
83941;BME280;73976;68.386;23.636;2024-03-08T05:12:06;99208.09;;;-1.77;67.37
83941;BME280;73976;68.386;23.636;2024-03-08T05:16:09;99210.63;;;-1.75;66.79
83941;BME280;73976;68.386;23.636;2024-03-08T05:20:12;99212.19;;;-1.73;67.26
83941;BME280;73976;68.386;23.636;2024-03-08T05:32:18;99217.97;;;-1.68;66.42
83941;BME280;73976;68.386;23.636;2024-03-08T05:36:21;99213.72;;;-1.69;67.51
83941;BME280;73976;68.386;23.636;2024-03-08T05:40:23;99220.47;;;-1.66;67.70
83941;BME280;73976;68.386;23.636;2024-03-08T05:44:26;99205.88;;;-1.67;67.71
83941;BME280;73976;68.386;23.636;2024-03-08T05:48:31;99212.78;;;-1.68;68.27
83941;BME280;73976;68.386;23.636;2024-03-08T05:52:36;99210.81;;;-1.63;67.41
83941;BME280;73976;68.386;23.636;2024-03-08T05:56:41;99206.44;;;-1.62;66.96
83941;BME280;73976;68.386;23.636;2024-03-08T06:00:46;99214.88;;;-1.59;66.98
83941;BME280;73976;68.386;23.636;2024-03-08T06:04:52;99209.69;;;-1.59;67.07
83941;BME280;73976;68.386;23.636;2024-03-08T06:08:54;99216.97;;;-1.50;66.11
83941;BME280;73976;68.386;23.636;2024-03-08T06:13:01;99205.69;;;-1.49;65.62
83941;BME280;73976;68.386;23.636;2024-03-08T06:21:05;99216.38;;;-1.39;66.16
83941;BME280;73976;68.386;23.636;2024-03-08T06:25:13;99216.13;;;-1.35;66.88
83941;BME280;73976;68.386;23.636;2024-03-08T06:29:18;99219.22;;;-1.28;65.69
83941;BME280;73976;68.386;23.636;2024-03-08T06:33:22;99222.47;;;-1.25;66.33
83941;BME280;73976;68.386;23.636;2024-03-08T06:37:25;99222.56;;;-1.26;67.61
83941;BME280;73976;68.386;23.636;2024-03-08T06:41:28;99226.00;;;-1.26;68.74
83941;BME280;73976;68.386;23.636;2024-03-08T06:49:33;99227.00;;;-1.28;68.09
83941;BME280;73976;68.386;23.636;2024-03-08T06:53:35;99219.72;;;-1.22;67.11
83941;BME280;73976;68.386;23.636;2024-03-08T06:57:41;99222.47;;;-1.25;69.20
83941;BME280;73976;68.386;23.636;2024-03-08T07:01:44;99230.66;;;-1.17;68.24
83941;BME280;73976;68.386;23.636;2024-03-08T07:05:46;99233.84;;;-1.12;67.20
83941;BME280;73976;68.386;23.636;2024-03-08T07:09:49;99220.47;;;-1.04;66.19
83941;BME280;73976;68.386;23.636;2024-03-08T07:13:52;99227.97;;;-1.00;66.20
83941;BME280;73976;68.386;23.636;2024-03-08T07:17:54;99221.28;;;-1.04;69.03
83941;BME280;73976;68.386;23.636;2024-03-08T07:21:57;99224.44;;;-0.99;67.69
83941;BME280;73976;68.386;23.636;2024-03-08T07:26:00;99220.75;;;-0.95;67.46
83941;BME280;73976;68.386;23.636;2024-03-08T07:34:08;99216.91;;;-0.88;69.22
83941;BME280;73976;68.386;23.636;2024-03-08T07:38:11;99222.28;;;-0.77;70.51
83941;BME280;73976;68.386;23.636;2024-03-08T07:42:14;99213.63;;;-0.76;66.92
83941;BME280;73976;68.386;23.636;2024-03-08T07:50:18;99214.16;;;-0.71;69.70
83941;BME280;73976;68.386;23.636;2024-03-08T07:54:21;99230.31;;;-0.66;74.78
83941;BME280;73976;68.386;23.636;2024-03-08T07:58:24;99231.88;;;-0.63;68.48
83941;BME280;73976;68.386;23.636;2024-03-08T08:02:27;99229.94;;;-0.60;69.79
83941;BME280;73976;68.386;23.636;2024-03-08T08:06:30;99229.69;;;-0.55;69.65
83941;BME280;73976;68.386;23.636;2024-03-08T08:10:36;99216.97;;;-0.60;72.35
83941;BME280;73976;68.386;23.636;2024-03-08T08:14:39;99221.75;;;-0.68;75.46
83941;BME280;73976;68.386;23.636;2024-03-08T08:18:43;99220.88;;;-0.67;74.01
83941;BME280;73976;68.386;23.636;2024-03-08T08:22:48;99228.66;;;-0.67;75.89
83941;BME280;73976;68.386;23.636;2024-03-08T08:26:51;99231.97;;;-0.65;75.44
83941;BME280;73976;68.386;23.636;2024-03-08T08:30:54;99227.72;;;-0.66;72.74
83941;BME280;73976;68.386;23.636;2024-03-08T08:34:56;99225.16;;;-0.81;76.97
83941;BME280;73976;68.386;23.636;2024-03-08T08:39:02;99226.75;;;-0.79;76.78
83941;BME280;73976;68.386;23.636;2024-03-08T08:43:05;99226.59;;;-0.76;78.15
83941;BME280;73976;68.386;23.636;2024-03-08T08:47:09;99226.13;;;-0.68;74.63
83941;BME280;73976;68.386;23.636;2024-03-08T08:51:17;99218.63;;;-0.59;75.44
83941;BME280;73976;68.386;23.636;2024-03-08T08:55:19;99216.53;;;-0.52;74.50
83941;BME280;73976;68.386;23.636;2024-03-08T08:59:29;99213.13;;;-0.39;70.42
83941;BME280;73976;68.386;23.636;2024-03-08T09:03:33;99223.16;;;-0.33;71.50
83941;BME280;73976;68.386;23.636;2024-03-08T09:07:37;99214.69;;;-0.36;73.00
83941;BME280;73976;68.386;23.636;2024-03-08T09:11:40;99206.19;;;-0.38;71.48
83941;BME280;73976;68.386;23.636;2024-03-08T09:15:44;99206.47;;;-0.29;73.63
83941;BME280;73976;68.386;23.636;2024-03-08T09:19:47;99218.53;;;-0.28;69.76
83941;BME280;73976;68.386;23.636;2024-03-08T09:23:52;99206.28;;;-0.26;71.81
83941;BME280;73976;68.386;23.636;2024-03-08T09:27:55;99195.13;;;-0.42;77.75
83941;BME280;73976;68.386;23.636;2024-03-08T09:31:58;99195.91;;;-0.40;77.66
83941;BME280;73976;68.386;23.636;2024-03-08T09:36:00;99194.41;;;-0.30;72.73
83941;BME280;73976;68.386;23.636;2024-03-08T09:40:05;99188.50;;;-0.18;69.65
83941;BME280;73976;68.386;23.636;2024-03-08T09:44:12;99179.19;;;-0.08;73.58
83941;BME280;73976;68.386;23.636;2024-03-08T09:48:17;99190.72;;;0.03;68.87
83941;BME280;73976;68.386;23.636;2024-03-08T09:52:21;99188.66;;;0.22;69.28
83941;BME280;73976;68.386;23.636;2024-03-08T09:56:24;99187.19;;;0.32;68.23
83941;BME280;73976;68.386;23.636;2024-03-08T10:00:27;99183.47;;;0.22;71.04
83941;BME280;73976;68.386;23.636;2024-03-08T10:04:31;99179.19;;;0.21;67.48
83941;BME280;73976;68.386;23.636;2024-03-08T10:08:36;99175.47;;;0.25;71.97
83941;BME280;73976;68.386;23.636;2024-03-08T10:12:48;99169.69;;;0.34;65.32
83941;BME280;73976;68.386;23.636;2024-03-08T10:16:52;99170.44;;;0.50;65.33
83941;BME280;73976;68.386;23.636;2024-03-08T10:21:08;99176.72;;;0.60;68.21
83941;BME280;73976;68.386;23.636;2024-03-08T10:25:12;99175.91;;;0.45;69.89
83941;BME280;73976;68.386;23.636;2024-03-08T10:29:15;99169.50;;;0.37;66.48
83941;BME280;73976;68.386;23.636;2024-03-08T10:33:20;99170.16;;;0.40;65.13
83941;BME280;73976;68.386;23.636;2024-03-08T10:37:22;99164.28;;;0.51;64.20
83941;BME280;73976;68.386;23.636;2024-03-08T10:41:30;99157.75;;;0.58;65.15
83941;BME280;73976;68.386;23.636;2024-03-08T10:45:38;99152.41;;;0.73;64.89
83941;BME280;73976;68.386;23.636;2024-03-08T10:49:54;99162.22;;;0.82;65.05
83941;BME280;73976;68.386;23.636;2024-03-08T10:53:59;99155.50;;;0.66;66.79
83941;BME280;73976;68.386;23.636;2024-03-08T10:58:02;99152.38;;;0.61;65.59
83941;BME280;73976;68.386;23.636;2024-03-08T11:02:06;99154.66;;;0.65;67.28
83941;BME280;73976;68.386;23.636;2024-03-08T11:06:15;99140.97;;;0.63;66.24
83941;BME280;73976;68.386;23.636;2024-03-08T11:10:20;99132.13;;;0.66;64.21
83941;BME280;73976;68.386;23.636;2024-03-08T11:14:43;99133.00;;;0.52;66.18
83941;BME280;73976;68.386;23.636;2024-03-08T11:18:47;99130.41;;;0.26;64.55
83941;BME280;73976;68.386;23.636;2024-03-08T11:26:45;99130.22;;;0.94;63.59
83941;BME280;73976;68.386;23.636;2024-03-08T11:35:02;99121.31;;;1.86;59.92
83941;BME280;73976;68.386;23.636;2024-03-08T11:39:07;99092.78;;;1.72;59.86
83941;BME280;73976;68.386;23.636;2024-03-08T11:43:17;99109.25;;;1.72;59.64
83941;BME280;73976;68.386;23.636;2024-03-08T11:47:21;99113.59;;;1.72;60.26
83941;BME280;73976;68.386;23.636;2024-03-08T11:51:24;99114.88;;;1.79;59.78
83941;BME280;73976;68.386;23.636;2024-03-08T11:55:26;99116.41;;;1.69;59.30
83941;BME280;73976;68.386;23.636;2024-03-08T11:59:31;99106.47;;;1.99;59.44
83941;BME280;73976;68.386;23.636;2024-03-08T12:03:34;99112.66;;;2.81;58.50
83941;BME280;73976;68.386;23.636;2024-03-08T12:07:37;99109.25;;;2.68;58.56
83941;BME280;73976;68.386;23.636;2024-03-08T12:11:40;99105.38;;;2.27;59.90
83941;BME280;73976;68.386;23.636;2024-03-08T12:15:43;99107.44;;;1.98;60.45
83941;BME280;73976;68.386;23.636;2024-03-08T12:19:47;99111.09;;;1.83;60.48
83941;BME280;73976;68.386;23.636;2024-03-08T12:24:06;99109.88;;;1.76;62.64
83941;BME280;73976;68.386;23.636;2024-03-08T12:28:12;99112.59;;;1.62;60.48
83941;BME280;73976;68.386;23.636;2024-03-08T12:32:18;99118.94;;;1.58;61.50
83941;BME280;73976;68.386;23.636;2024-03-08T12:36:21;99116.31;;;1.33;65.27
83941;BME280;73976;68.386;23.636;2024-03-08T12:40:28;99114.34;;;1.24;63.38
83941;BME280;73976;68.386;23.636;2024-03-08T12:44:31;99101.94;;;1.15;63.30
83941;BME280;73976;68.386;23.636;2024-03-08T12:48:34;99099.03;;;1.19;62.30
83941;BME280;73976;68.386;23.636;2024-03-08T12:52:37;99092.47;;;1.14;61.96
83941;BME280;73976;68.386;23.636;2024-03-08T12:56:40;99094.88;;;1.17;64.54
83941;BME280;73976;68.386;23.636;2024-03-08T13:00:43;99092.16;;;1.06;62.40
83941;BME280;73976;68.386;23.636;2024-03-08T13:04:46;99091.31;;;0.93;65.26
83941;BME280;73976;68.386;23.636;2024-03-08T13:08:57;99089.84;;;0.89;64.60
83941;BME280;73976;68.386;23.636;2024-03-08T13:13:01;99091.50;;;0.90;62.63
83941;BME280;73976;68.386;23.636;2024-03-08T13:17:05;99088.16;;;0.88;63.32
83941;BME280;73976;68.386;23.636;2024-03-08T13:21:08;99075.38;;;0.85;63.13
83941;BME280;73976;68.386;23.636;2024-03-08T13:25:11;99076.31;;;0.84;63.20
83941;BME280;73976;68.386;23.636;2024-03-08T13:29:15;99087.66;;;0.83;64.37
83941;BME280;73976;68.386;23.636;2024-03-08T13:33:18;99072.97;;;0.69;64.79
83941;BME280;73976;68.386;23.636;2024-03-08T13:37:21;99070.97;;;0.73;64.58
83941;BME280;73976;68.386;23.636;2024-03-08T13:41:24;99073.38;;;0.63;65.31
83941;BME280;73976;68.386;23.636;2024-03-08T13:45:27;99076.47;;;0.56;63.82
83941;BME280;73976;68.386;23.636;2024-03-08T13:49:30;99075.56;;;0.43;64.73
83941;BME280;73976;68.386;23.636;2024-03-08T13:53:33;99084.06;;;0.32;63.81
83941;BME280;73976;68.386;23.636;2024-03-08T13:57:37;99078.63;;;0.23;64.07
83941;BME280;73976;68.386;23.636;2024-03-08T14:01:39;99064.25;;;0.17;63.59
83941;BME280;73976;68.386;23.636;2024-03-08T14:05:42;99058.81;;;0.08;66.54
83941;BME280;73976;68.386;23.636;2024-03-08T14:09:45;99063.28;;;0.06;64.18
83941;BME280;73976;68.386;23.636;2024-03-08T14:13:47;99067.72;;;0.03;64.89
83941;BME280;73976;68.386;23.636;2024-03-08T14:17:53;99065.69;;;-0.06;65.99
83941;BME280;73976;68.386;23.636;2024-03-08T14:21:56;99058.28;;;-0.12;66.94
83941;BME280;73976;68.386;23.636;2024-03-08T14:26:02;99062.53;;;-0.11;65.61
83941;BME280;73976;68.386;23.636;2024-03-08T14:30:06;99052.44;;;-0.15;66.27
83941;BME280;73976;68.386;23.636;2024-03-08T14:34:12;99057.84;;;-0.18;66.01
83941;BME280;73976;68.386;23.636;2024-03-08T14:38:17;99048.88;;;-0.27;66.33
83941;BME280;73976;68.386;23.636;2024-03-08T14:42:19;99049.06;;;-0.30;64.29
83941;BME280;73976;68.386;23.636;2024-03-08T14:46:24;99040.50;;;-0.32;64.89
83941;BME280;73976;68.386;23.636;2024-03-08T14:50:27;99047.41;;;-0.31;65.13
83941;BME280;73976;68.386;23.636;2024-03-08T14:54:29;99041.25;;;-0.30;64.97
83941;BME280;73976;68.386;23.636;2024-03-08T14:58:32;99037.41;;;-0.37;66.14
83941;BME280;73976;68.386;23.636;2024-03-08T15:02:35;99033.66;;;-0.33;64.73
83941;BME280;73976;68.386;23.636;2024-03-08T15:06:39;99033.84;;;-0.36;67.25
83941;BME280;73976;68.386;23.636;2024-03-08T15:10:42;99033.94;;;-0.37;67.63
83941;BME280;73976;68.386;23.636;2024-03-08T15:14:47;99035.63;;;-0.36;69.14
83941;BME280;73976;68.386;23.636;2024-03-08T15:18:50;99028.84;;;-0.39;68.35
83941;BME280;73976;68.386;23.636;2024-03-08T15:22:54;99020.50;;;-0.44;69.48
83941;BME280;73976;68.386;23.636;2024-03-08T15:27:01;99009.13;;;-0.55;67.73
83941;BME280;73976;68.386;23.636;2024-03-08T15:31:06;99021.09;;;-0.53;65.54
83941;BME280;73976;68.386;23.636;2024-03-08T15:35:09;99019.63;;;-0.57;68.52
83941;BME280;73976;68.386;23.636;2024-03-08T15:39:15;99024.25;;;-0.62;66.84
83941;BME280;73976;68.386;23.636;2024-03-08T15:43:18;99021.66;;;-0.62;68.22
83941;BME280;73976;68.386;23.636;2024-03-08T15:47:21;99019.25;;;-0.65;67.52
83941;BME280;73976;68.386;23.636;2024-03-08T15:51:24;99019.34;;;-0.66;66.71
83941;BME280;73976;68.386;23.636;2024-03-08T15:55:27;99011.81;;;-0.71;68.26
83941;BME280;73976;68.386;23.636;2024-03-08T15:59:32;99004.50;;;-0.78;68.25
83941;BME280;73976;68.386;23.636;2024-03-08T16:03:39;99013.91;;;-0.76;69.49
83941;BME280;73976;68.386;23.636;2024-03-08T16:07:42;99009.69;;;-0.78;67.20
83941;BME280;73976;68.386;23.636;2024-03-08T16:11:45;99006.28;;;-0.79;71.84
83941;BME280;73976;68.386;23.636;2024-03-08T16:15:48;99007.19;;;-0.80;69.93
83941;BME280;73976;68.386;23.636;2024-03-08T16:19:53;99002.19;;;-0.83;69.51
83941;BME280;73976;68.386;23.636;2024-03-08T16:23:58;99002.56;;;-0.89;69.79
83941;BME280;73976;68.386;23.636;2024-03-08T16:28:03;98994.06;;;-0.91;69.60
83941;BME280;73976;68.386;23.636;2024-03-08T16:32:05;98998.59;;;-0.94;68.99
83941;BME280;73976;68.386;23.636;2024-03-08T16:36:08;98990.06;;;-0.96;71.50
83941;BME280;73976;68.386;23.636;2024-03-08T16:40:13;98981.75;;;-1.01;73.47
83941;BME280;73976;68.386;23.636;2024-03-08T16:44:20;98968.50;;;-1.11;72.62
83941;BME280;73976;68.386;23.636;2024-03-08T17:32:10;98959.97;;;-1.41;70.68
83941;BME280;73976;68.386;23.636;2024-03-08T17:36:12;98967.75;;;-1.41;72.12
83941;BME280;73976;68.386;23.636;2024-03-08T17:40:19;98964.13;;;-1.38;76.84
83941;BME280;73976;68.386;23.636;2024-03-08T17:44:24;98961.81;;;-1.43;73.68
83941;BME280;73976;68.386;23.636;2024-03-08T17:48:32;98955.91;;;-1.45;73.62
83941;BME280;73976;68.386;23.636;2024-03-08T17:52:34;98956.88;;;-1.47;73.26
83941;BME280;73976;68.386;23.636;2024-03-08T17:56:39;98961.34;;;-1.49;73.61
83941;BME280;73976;68.386;23.636;2024-03-08T18:00:42;98965.78;;;-1.51;73.12
83941;BME280;73976;68.386;23.636;2024-03-08T18:04:47;98969.47;;;-1.55;71.71
83941;BME280;73976;68.386;23.636;2024-03-08T18:08:50;98971.13;;;-1.54;69.14
83941;BME280;73976;68.386;23.636;2024-03-08T18:12:58;98966.03;;;-1.56;70.15
83941;BME280;73976;68.386;23.636;2024-03-08T18:17:00;98963.63;;;-1.59;69.73
83941;BME280;73976;68.386;23.636;2024-03-08T18:21:03;98956.78;;;-1.60;69.21
83941;BME280;73976;68.386;23.636;2024-03-08T18:25:08;98961.97;;;-1.60;72.86
83941;BME280;73976;68.386;23.636;2024-03-08T18:29:14;98955.09;;;-1.61;71.17
83941;BME280;73976;68.386;23.636;2024-03-08T18:33:18;98955.47;;;-1.67;71.77
83941;BME280;73976;68.386;23.636;2024-03-08T18:37:23;98954.66;;;-1.67;71.83
83941;BME280;73976;68.386;23.636;2024-03-08T18:41:26;98958.22;;;-1.70;69.33
83941;BME280;73976;68.386;23.636;2024-03-08T18:45:36;98964.16;;;-1.68;70.16
83941;BME280;73976;68.386;23.636;2024-03-08T18:49:40;98946.41;;;-1.74;74.70
83941;BME280;73976;68.386;23.636;2024-03-08T18:53:43;98958.16;;;-1.68;70.71
83941;BME280;73976;68.386;23.636;2024-03-08T18:57:45;98954.75;;;-1.69;70.96
83941;BME280;73976;68.386;23.636;2024-03-08T19:01:48;98943.97;;;-1.77;70.56
83941;BME280;73976;68.386;23.636;2024-03-08T19:05:53;98959.16;;;-1.71;70.90
83941;BME280;73976;68.386;23.636;2024-03-08T19:09:56;98966.19;;;-1.73;70.49
83941;BME280;73976;68.386;23.636;2024-03-08T19:13:59;98964.53;;;-1.74;71.05
83941;BME280;73976;68.386;23.636;2024-03-08T19:18:02;98965.38;;;-1.73;71.03
83941;BME280;73976;68.386;23.636;2024-03-08T19:22:07;98957.69;;;-1.75;76.71
83941;BME280;73976;68.386;23.636;2024-03-08T19:26:10;98956.00;;;-1.76;75.66
83941;BME280;73976;68.386;23.636;2024-03-08T19:30:14;98966.44;;;-1.77;75.65
83941;BME280;73976;68.386;23.636;2024-03-08T19:34:19;98969.03;;;-1.77;70.80
83941;BME280;73976;68.386;23.636;2024-03-08T19:38:27;98959.53;;;-1.77;70.21
83941;BME280;73976;68.386;23.636;2024-03-08T19:42:33;98955.28;;;-1.78;75.81
83941;BME280;73976;68.386;23.636;2024-03-08T19:46:35;98958.75;;;-1.79;73.07
83941;BME280;73976;68.386;23.636;2024-03-08T19:50:43;98955.28;;;-1.78;70.45
83941;BME280;73976;68.386;23.636;2024-03-08T19:54:45;98948.50;;;-1.80;68.80
83941;BME280;73976;68.386;23.636;2024-03-08T19:58:48;98952.28;;;-1.86;68.75
83941;BME280;73976;68.386;23.636;2024-03-08T20:02:52;98956.34;;;-1.82;68.73
83941;BME280;73976;68.386;23.636;2024-03-08T20:06:58;98952.88;;;-1.81;69.05
83941;BME280;73976;68.386;23.636;2024-03-08T20:11:01;98941.84;;;-1.84;71.23
83941;BME280;73976;68.386;23.636;2024-03-08T20:15:07;98940.44;;;-1.90;70.35
83941;BME280;73976;68.386;23.636;2024-03-08T20:19:10;98939.34;;;-1.86;69.50
83941;BME280;73976;68.386;23.636;2024-03-08T20:23:14;98937.84;;;-1.90;69.10
83941;BME280;73976;68.386;23.636;2024-03-08T20:27:17;98938.03;;;-1.93;67.76
83941;BME280;73976;68.386;23.636;2024-03-08T20:31:20;98923.56;;;-1.97;71.15
83941;BME280;73976;68.386;23.636;2024-03-08T20:35:23;98927.38;;;-2.03;73.06
83941;BME280;73976;68.386;23.636;2024-03-08T20:39:26;98915.63;;;-2.08;72.66
83941;BME280;73976;68.386;23.636;2024-03-08T20:43:31;98922.34;;;-2.06;71.14
83941;BME280;73976;68.386;23.636;2024-03-08T20:47:35;98928.38;;;-2.05;71.86
83941;BME280;73976;68.386;23.636;2024-03-08T20:51:43;98937.03;;;-2.06;71.20
83941;BME280;73976;68.386;23.636;2024-03-08T20:55:46;98925.22;;;-2.10;72.35
83941;BME280;73976;68.386;23.636;2024-03-08T20:59:51;98927.22;;;-2.15;70.94
83941;BME280;73976;68.386;23.636;2024-03-08T21:03:54;98919.72;;;-2.20;79.65
83941;BME280;73976;68.386;23.636;2024-03-08T21:07:57;98924.16;;;-2.22;72.09
83941;BME280;73976;68.386;23.636;2024-03-08T21:12:00;98929.25;;;-2.20;74.09
83941;BME280;73976;68.386;23.636;2024-03-08T21:16:03;98924.06;;;-2.20;70.88
83941;BME280;73976;68.386;23.636;2024-03-08T21:20:08;98920.72;;;-2.22;71.56
83941;BME280;73976;68.386;23.636;2024-03-08T21:24:11;98928.50;;;-2.22;73.83
83941;BME280;73976;68.386;23.636;2024-03-08T21:28:15;98922.56;;;-2.24;75.32
83941;BME280;73976;68.386;23.636;2024-03-08T21:32:20;98921.84;;;-2.26;75.17
83941;BME280;73976;68.386;23.636;2024-03-08T21:36:23;98919.25;;;-2.26;76.86
83941;BME280;73976;68.386;23.636;2024-03-08T21:40:26;98918.22;;;-2.24;79.03
83941;BME280;73976;68.386;23.636;2024-03-08T21:44:30;98914.97;;;-2.27;73.04
83941;BME280;73976;68.386;23.636;2024-03-08T21:48:32;98923.41;;;-2.24;70.23
83941;BME280;73976;68.386;23.636;2024-03-08T21:52:35;98925.50;;;-2.30;69.93
83941;BME280;73976;68.386;23.636;2024-03-08T21:56:38;98923.84;;;-2.31;70.04
83941;BME280;73976;68.386;23.636;2024-03-08T22:00:41;98916.25;;;-2.34;72.05
83941;BME280;73976;68.386;23.636;2024-03-08T22:04:44;98907.91;;;-2.39;71.89
83941;BME280;73976;68.386;23.636;2024-03-08T22:08:48;98902.56;;;-2.36;75.26
83941;BME280;73976;68.386;23.636;2024-03-08T22:12:57;98914.00;;;-2.25;76.43
83941;BME280;73976;68.386;23.636;2024-03-08T22:17:00;98906.22;;;-2.25;77.75
83941;BME280;73976;68.386;23.636;2024-03-08T22:21:03;98879.94;;;-2.33;77.56
83941;BME280;73976;68.386;23.636;2024-03-08T22:25:06;98915.63;;;-2.08;83.07
83941;BME280;73976;68.386;23.636;2024-03-08T22:29:09;98906.34;;;-2.12;78.39
83941;BME280;73976;68.386;23.636;2024-03-08T22:33:12;98903.84;;;-2.14;76.48
83941;BME280;73976;68.386;23.636;2024-03-08T22:37:15;98913.38;;;-2.14;78.28
83941;BME280;73976;68.386;23.636;2024-03-08T22:41:18;98899.84;;;-2.19;80.12
83941;BME280;73976;68.386;23.636;2024-03-08T22:45:21;98901.69;;;-2.21;76.67
83941;BME280;73976;68.386;23.636;2024-03-08T22:49:26;98907.78;;;-2.22;78.06
83941;BME280;73976;68.386;23.636;2024-03-08T22:53:30;98904.28;;;-2.21;74.54